createdAt,value
2019-06-01T00:01:27.966Z,74.34
2019-06-01T00:03:56.169Z,74.37
2019-06-01T00:06:24.382Z,74.39
2019-06-01T00:08:52.698Z,74.49
2019-06-01T00:11:20.917Z,74.51
2019-06-01T00:13:49.675Z,74.60
2019-06-01T00:16:17.937Z,74.63
2019-06-01T00:18:46.154Z,74.69
2019-06-01T00:21:14.387Z,74.71
2019-06-01T00:23:42.599Z,74.82
2019-06-01T00:26:10.818Z,74.99
2019-06-01T00:28:39.090Z,75.13
2019-06-01T00:31:07.307Z,75.23
2019-06-01T00:33:35.543Z,75.15
2019-06-01T00:36:03.762Z,75.11
2019-06-01T00:38:31.968Z,75.07
2019-06-01T00:41:00.204Z,74.94
2019-06-01T00:43:28.725Z,74.81
2019-06-01T00:45:56.953Z,74.83
2019-06-01T00:48:25.190Z,74.92
2019-06-01T00:50:53.401Z,74.99
2019-06-01T00:53:21.673Z,75.16
2019-06-01T00:55:49.902Z,75.31
2019-06-01T00:58:18.120Z,75.30
2019-06-01T01:00:47.790Z,75.26
2019-06-01T01:03:16.674Z,75.21
2019-06-01T01:05:44.907Z,75.18
2019-06-01T01:08:13.123Z,75.06
2019-06-01T01:10:41.325Z,74.95
2019-06-01T01:13:23.253Z,74.84
2019-06-01T01:15:51.487Z,74.72
2019-06-01T01:18:19.695Z,74.69
2019-06-01T01:20:47.925Z,74.63
2019-06-01T01:23:16.148Z,74.53
2019-06-01T01:25:44.364Z,74.48
2019-06-01T01:28:12.573Z,74.44
2019-06-01T01:30:41.529Z,74.44
2019-06-01T01:33:09.788Z,74.36
2019-06-01T01:35:37.983Z,74.25
2019-06-01T01:38:06.219Z,74.15
2019-06-01T01:40:34.425Z,74.11
2019-06-01T01:43:02.658Z,74.11
2019-06-01T01:45:30.877Z,74.11
2019-06-01T01:47:59.279Z,74.00
2019-06-01T01:50:27.765Z,73.89
2019-06-01T01:52:57.122Z,73.82
2019-06-01T01:55:25.573Z,73.77
2019-06-01T01:57:53.796Z,73.71
2019-06-01T02:00:46.817Z,73.66
2019-06-01T02:03:15.061Z,73.58
2019-06-01T02:05:43.347Z,73.54
2019-06-01T02:08:11.612Z,73.50
2019-06-01T02:10:39.817Z,73.48
2019-06-01T02:13:08.088Z,73.48
2019-06-01T02:15:36.634Z,73.54
2019-06-01T02:18:05.505Z,73.53
2019-06-01T02:20:33.793Z,73.52
2019-06-01T02:23:03.160Z,73.57
2019-06-01T02:25:31.669Z,73.58
2019-06-01T02:28:01.063Z,73.59
2019-06-01T02:30:29.939Z,73.64
2019-06-01T02:32:58.810Z,73.66
2019-06-01T02:35:28.085Z,73.69
2019-06-01T02:37:56.503Z,73.69
2019-06-01T02:40:24.806Z,73.62
2019-06-01T02:42:54.911Z,73.56
2019-06-01T02:45:23.629Z,73.56
2019-06-01T02:47:51.947Z,73.66
2019-06-01T02:50:20.174Z,73.64
2019-06-01T02:52:48.424Z,73.63
2019-06-01T02:55:18.250Z,73.65
2019-06-01T02:57:46.466Z,73.64
2019-06-01T03:00:16.954Z,73.54
2019-06-01T03:02:45.169Z,73.57
2019-06-01T03:05:13.379Z,73.61
2019-06-01T03:07:42.588Z,73.70
2019-06-01T03:10:11.052Z,73.79
2019-06-01T03:12:43.935Z,73.81
2019-06-01T03:15:12.632Z,73.81
2019-06-01T03:17:43.873Z,73.76
2019-06-01T03:20:12.079Z,73.67
2019-06-01T03:22:41.844Z,73.53
2019-06-01T03:25:10.056Z,73.39
2019-06-01T03:27:39.232Z,73.20
2019-06-01T03:30:09.795Z,72.98
2019-06-01T03:32:38.127Z,72.76
2019-06-01T03:35:06.787Z,72.55
2019-06-01T03:37:34.967Z,72.43
2019-06-01T03:40:06.818Z,72.27
2019-06-01T03:42:34.642Z,72.11
2019-06-01T03:45:03.473Z,71.89
2019-06-01T03:47:31.655Z,71.89
2019-06-01T03:50:00.696Z,71.79
2019-06-01T03:52:28.971Z,71.66
2019-06-01T03:54:57.175Z,71.57
2019-06-01T03:57:25.382Z,71.51
2019-06-01T03:59:53.586Z,71.39
2019-06-01T04:02:32.780Z,71.28
2019-06-01T04:04:51.731Z,71.21
2019-06-01T04:07:19.986Z,71.10
2019-06-01T04:09:48.220Z,71.05
2019-06-01T04:12:16.427Z,71.00
2019-06-01T04:14:44.625Z,70.86
2019-06-01T04:17:12.849Z,70.69
2019-06-01T04:19:41.056Z,70.58
2019-06-01T04:22:10.165Z,70.43
2019-06-01T04:24:38.366Z,70.34
2019-06-01T04:27:06.594Z,70.23
2019-06-01T04:29:34.828Z,70.14
2019-06-01T04:32:03.029Z,69.93
2019-06-01T04:34:31.242Z,69.68
2019-06-01T04:36:59.442Z,69.47
2019-06-01T04:39:27.645Z,69.27
2019-06-01T04:41:55.860Z,69.06
2019-06-01T04:44:24.069Z,68.78
2019-06-01T04:46:52.303Z,68.56
2019-06-01T04:49:20.502Z,68.39
2019-06-01T04:51:48.708Z,68.19
2019-06-01T04:54:16.965Z,68.08
2019-06-01T04:56:45.162Z,67.97
2019-06-01T04:59:13.550Z,67.80
2019-06-01T05:01:41.749Z,67.71
2019-06-01T05:04:11.091Z,67.54
2019-06-01T05:06:39.369Z,67.36
2019-06-01T05:09:09.329Z,67.22
2019-06-01T05:11:37.591Z,67.06
2019-06-01T05:14:05.808Z,66.90
2019-06-01T05:16:34.020Z,66.68
2019-06-01T05:19:02.250Z,66.65
2019-06-01T05:21:30.490Z,66.50
2019-06-01T05:23:58.691Z,66.20
2019-06-01T05:26:27.291Z,66.12
2019-06-01T05:28:55.522Z,65.94
2019-06-01T05:31:25.300Z,65.81
2019-06-01T05:33:53.627Z,65.70
2019-06-01T05:36:21.941Z,65.46
2019-06-01T05:38:50.147Z,65.38
2019-06-01T05:41:19.915Z,65.14
2019-06-01T05:43:48.255Z,65.01
2019-06-01T05:46:16.476Z,64.83
2019-06-01T05:48:44.689Z,64.69
2019-06-01T05:51:15.558Z,64.72
2019-06-01T05:53:42.893Z,64.64
2019-06-01T05:56:11.127Z,64.46
2019-06-01T05:58:40.515Z,64.39
2019-06-01T06:01:10.304Z,64.21
2019-06-01T06:03:40.643Z,63.95
2019-06-01T06:06:08.557Z,63.65
2019-06-01T06:08:36.826Z,63.53
2019-06-01T06:11:05.019Z,63.23
2019-06-01T06:13:33.222Z,62.89
2019-06-01T06:16:01.462Z,62.68
2019-06-01T06:18:29.667Z,62.68
2019-06-01T06:20:57.970Z,62.06
2019-06-01T06:23:26.175Z,61.86
2019-06-01T06:25:54.400Z,61.61
2019-06-01T06:28:23.245Z,61.30
2019-06-01T06:30:52.611Z,60.91
2019-06-01T06:33:21.454Z,59.83
2019-06-01T06:35:49.637Z,58.51
2019-06-01T06:38:17.912Z,57.35
2019-06-01T06:40:46.084Z,56.65
2019-06-01T06:43:20.578Z,56.31
2019-06-01T06:45:44.255Z,55.46
2019-06-01T06:48:12.652Z,54.45
2019-06-01T06:50:40.987Z,53.88
2019-06-01T06:53:24.224Z,53.19
2019-06-01T06:55:39.155Z,53.04
2019-06-01T06:58:07.463Z,52.22
2019-06-01T07:00:35.669Z,51.79
2019-06-01T07:03:03.939Z,51.48
2019-06-01T07:05:32.148Z,51.27
2019-06-01T07:08:00.353Z,50.41
2019-06-01T07:10:28.566Z,49.96
2019-06-01T07:12:56.803Z,49.82
2019-06-01T07:15:25.543Z,50.22
2019-06-01T07:17:53.799Z,50.80
2019-06-01T07:20:22.013Z,50.78
2019-06-01T07:22:50.237Z,50.57
2019-06-01T07:25:19.590Z,50.05
2019-06-01T07:27:47.940Z,50.27
2019-06-01T07:30:16.197Z,51.02
2019-06-01T07:32:44.440Z,51.72
2019-06-01T07:35:12.658Z,51.98
2019-06-01T07:37:40.872Z,51.86
2019-06-01T07:40:13.294Z,51.54
2019-06-01T07:42:39.107Z,50.83
2019-06-01T07:45:07.814Z,50.16
2019-06-01T07:47:36.044Z,49.29
2019-06-01T07:50:07.101Z,48.78
2019-06-01T07:52:35.297Z,47.19
2019-06-01T07:55:03.836Z,46.67
2019-06-01T07:57:32.042Z,46.41
2019-06-01T08:00:00.277Z,46.52
2019-06-01T08:02:30.384Z,46.36
2019-06-01T08:04:58.489Z,46.80
2019-06-01T08:07:27.696Z,46.89
2019-06-01T08:09:56.021Z,46.72
2019-06-01T08:12:25.455Z,46.86
2019-06-01T08:14:53.731Z,46.99
2019-06-01T08:17:22.139Z,47.03
2019-06-01T08:19:51.999Z,45.99
2019-06-01T08:22:20.343Z,46.46
2019-06-01T08:24:48.584Z,47.24
2019-06-01T08:27:16.822Z,48.03
2019-06-01T08:29:45.045Z,48.33
2019-06-01T08:32:13.282Z,48.31
2019-06-01T08:34:41.481Z,48.36
2019-06-01T08:37:09.689Z,48.13
2019-06-01T08:39:37.944Z,47.57
2019-06-01T08:42:06.335Z,47.09
2019-06-01T08:44:34.556Z,46.75
2019-06-01T08:47:02.770Z,46.73
2019-06-01T08:49:32.372Z,46.29
2019-06-01T08:52:00.853Z,45.62
2019-06-01T08:54:30.298Z,45.62
2019-06-01T08:56:58.595Z,45.47
2019-06-01T08:59:26.777Z,45.25
2019-06-01T09:01:55.012Z,45.16
2019-06-01T09:04:24.498Z,45.29
2019-06-01T09:06:52.797Z,45.91
2019-06-01T09:09:21.026Z,46.18
2019-06-01T09:11:49.225Z,46.72
2019-06-01T09:14:17.432Z,46.93
2019-06-01T09:16:45.674Z,47.17
2019-06-01T09:19:13.920Z,47.70
2019-06-01T09:21:42.095Z,47.74
2019-06-01T09:24:10.329Z,47.61
2019-06-01T09:26:38.572Z,47.50
2019-06-01T09:29:06.807Z,47.86
2019-06-01T09:31:36.563Z,47.82
2019-06-01T09:34:04.911Z,47.14
2019-06-01T09:36:33.131Z,46.19
2019-06-01T09:39:01.345Z,46.06
2019-06-01T09:41:30.499Z,45.68
2019-06-01T09:43:59.854Z,45.30
2019-06-01T09:46:28.871Z,45.30
2019-06-01T09:48:57.151Z,44.63
2019-06-01T09:51:25.371Z,44.36
2019-06-01T09:53:53.595Z,44.29
2019-06-01T09:56:21.810Z,44.19
2019-06-01T09:58:50.058Z,43.77
2019-06-01T10:01:18.269Z,43.25
2019-06-01T10:03:46.532Z,43.36
2019-06-01T10:06:14.748Z,43.02
2019-06-01T10:08:42.951Z,43.39
2019-06-01T10:11:11.168Z,43.62
2019-06-01T10:13:39.383Z,43.43
2019-06-01T10:16:07.589Z,43.11
2019-06-01T10:18:37.018Z,42.80
2019-06-01T10:21:05.306Z,42.34
2019-06-01T10:23:34.445Z,42.62
2019-06-01T10:26:02.975Z,43.18
2019-06-01T10:28:31.559Z,43.93
2019-06-01T10:30:59.850Z,44.04
2019-06-01T10:33:28.092Z,43.08
2019-06-01T10:35:56.315Z,43.01
2019-06-01T10:38:24.541Z,43.30
2019-06-01T10:40:52.735Z,42.57
2019-06-01T10:43:21.000Z,42.93
2019-06-01T10:45:49.250Z,42.98
2019-06-01T10:48:17.447Z,42.88
2019-06-01T10:50:45.702Z,42.58
2019-06-01T10:53:13.910Z,42.25
2019-06-01T10:55:42.467Z,42.72
2019-06-01T10:58:10.969Z,42.81
2019-06-01T11:00:46.735Z,42.62
2019-06-01T11:03:09.117Z,42.48
2019-06-01T11:05:37.318Z,42.65
2019-06-01T11:08:05.535Z,42.53
2019-06-01T11:10:34.860Z,42.29
2019-06-01T11:13:03.185Z,42.38
2019-06-01T11:15:31.393Z,42.02
2019-06-01T11:17:59.605Z,41.91
2019-06-01T11:20:27.807Z,41.78
2019-06-01T11:22:56.025Z,42.01
2019-06-01T11:25:24.239Z,41.67
2019-06-01T11:27:52.457Z,41.93
2019-06-01T11:30:20.659Z,41.92
2019-06-01T11:32:48.873Z,42.16
2019-06-01T11:35:17.108Z,42.19
2019-06-01T11:37:45.341Z,42.03
2019-06-01T11:40:13.540Z,41.45
2019-06-01T11:42:42.967Z,41.08
2019-06-01T11:45:11.325Z,41.46
2019-06-01T11:47:40.743Z,41.56
2019-06-01T11:50:09.131Z,41.29
2019-06-01T11:52:37.331Z,41.44
2019-06-01T11:55:08.346Z,41.36
2019-06-01T11:57:37.484Z,41.09
2019-06-01T12:00:11.879Z,41.08
2019-06-01T12:02:40.092Z,40.89
2019-06-01T12:05:08.838Z,40.77
2019-06-01T12:07:37.677Z,40.72
2019-06-01T12:10:06.555Z,40.97
2019-06-01T12:12:35.974Z,40.91
2019-06-01T12:15:05.154Z,40.77
2019-06-01T12:17:33.355Z,40.42
2019-06-01T12:20:01.652Z,40.32
2019-06-01T12:22:29.954Z,40.13
2019-06-01T12:24:58.138Z,39.98
2019-06-01T12:27:26.342Z,39.95
2019-06-01T12:29:54.600Z,39.73
2019-06-01T12:32:22.813Z,40.03
2019-06-01T12:34:51.011Z,40.21
2019-06-01T12:37:36.202Z,40.12
2019-06-01T12:39:51.215Z,39.95
2019-06-01T12:42:19.161Z,39.77
2019-06-01T12:44:47.821Z,40.09
2019-06-01T12:47:16.109Z,39.95
2019-06-01T12:49:44.273Z,40.26
2019-06-01T12:52:12.510Z,40.25
2019-06-01T12:54:40.769Z,40.12
2019-06-01T12:57:09.089Z,40.11
2019-06-01T12:59:37.372Z,39.85
2019-06-01T13:02:05.507Z,39.76
2019-06-01T13:04:33.711Z,39.64
2019-06-01T13:07:01.925Z,39.44
2019-06-01T13:09:30.344Z,39.28
2019-06-01T13:11:58.551Z,39.22
2019-06-01T13:14:26.770Z,39.34
2019-06-01T13:17:06.339Z,39.75
2019-06-01T13:19:24.986Z,39.78
2019-06-01T13:21:53.194Z,39.96
2019-06-01T13:24:21.474Z,39.77
2019-06-01T13:26:50.149Z,39.77
2019-06-01T13:29:18.564Z,39.58
2019-06-01T13:31:48.143Z,39.57
2019-06-01T13:34:16.457Z,39.70
2019-06-01T13:36:44.730Z,39.85
2019-06-01T13:39:12.950Z,39.64
2019-06-01T13:41:41.211Z,39.45
2019-06-01T13:44:09.435Z,39.11
2019-06-01T13:46:37.663Z,39.06
2019-06-01T13:49:05.868Z,39.36
2019-06-01T13:51:34.151Z,39.54
2019-06-01T13:54:02.400Z,39.48
2019-06-01T13:56:31.414Z,39.57
2019-06-01T13:58:59.901Z,39.76
2019-06-01T14:01:28.138Z,39.75
2019-06-01T14:03:56.356Z,39.58
2019-06-01T14:06:24.570Z,39.20
2019-06-01T14:08:53.195Z,38.75
2019-06-01T14:11:21.509Z,38.75
2019-06-01T14:13:49.938Z,38.91
2019-06-01T14:16:18.157Z,38.85
2019-06-01T14:18:47.575Z,39.21
2019-06-01T14:21:15.974Z,39.47
2019-06-01T14:23:45.662Z,39.89
2019-06-01T14:26:14.045Z,40.33
2019-06-01T14:28:42.290Z,40.78
2019-06-01T14:31:10.528Z,41.31
2019-06-01T14:33:38.827Z,41.66
2019-06-01T14:36:07.108Z,42.07
2019-06-01T14:38:46.649Z,42.44
2019-06-01T14:41:05.324Z,42.59
2019-06-01T14:43:33.534Z,42.81
2019-06-01T14:46:01.754Z,43.33
2019-06-01T14:48:30.092Z,43.89
2019-06-01T14:50:58.304Z,44.42
2019-06-01T14:53:26.530Z,44.85
2019-06-01T14:55:55.807Z,45.10
2019-06-01T14:58:24.085Z,45.20
2019-06-01T15:00:52.702Z,45.22
2019-06-01T15:03:20.910Z,45.19
2019-06-01T15:05:50.261Z,45.54
2019-06-01T15:08:18.524Z,45.68
2019-06-01T15:10:46.734Z,45.94
2019-06-01T15:13:14.969Z,46.11
2019-06-01T15:15:43.183Z,46.21
2019-06-01T15:18:11.424Z,46.25
2019-06-01T15:20:39.639Z,46.23
2019-06-01T15:23:07.868Z,46.45
2019-06-01T15:25:36.073Z,46.72
2019-06-01T15:28:04.370Z,46.78
2019-06-01T15:30:32.625Z,46.87
2019-06-01T15:33:00.851Z,47.10
2019-06-01T15:35:29.084Z,47.30
2019-06-01T15:38:01.478Z,47.51
2019-06-01T15:40:27.253Z,47.52
2019-06-01T15:42:55.460Z,47.40
2019-06-01T15:45:23.678Z,47.37
2019-06-01T15:47:51.887Z,47.37
2019-06-01T15:50:20.134Z,47.75
2019-06-01T15:52:48.352Z,47.80
2019-06-01T15:55:16.558Z,47.77
2019-06-01T15:57:44.775Z,47.63
2019-06-01T16:00:13.092Z,47.61
2019-06-01T16:02:41.418Z,47.77
2019-06-01T16:05:09.609Z,47.86
2019-06-01T16:07:37.820Z,47.99
2019-06-01T16:10:08.417Z,48.05
2019-06-01T16:12:36.883Z,48.11
2019-06-01T16:15:07.410Z,47.99
2019-06-01T16:17:35.616Z,48.14
2019-06-01T16:20:05.960Z,48.29
2019-06-01T16:22:34.185Z,48.44
2019-06-01T16:25:02.610Z,48.57
2019-06-01T16:27:30.938Z,48.74
2019-06-01T16:30:00.167Z,48.89
2019-06-01T16:32:29.143Z,49.05
2019-06-01T16:34:58.524Z,49.08
2019-06-01T16:37:27.104Z,49.20
2019-06-01T16:40:01.644Z,49.29
2019-06-01T16:42:25.260Z,49.25
2019-06-01T16:44:53.482Z,49.24
2019-06-01T16:47:21.743Z,49.33
2019-06-01T16:49:50.035Z,49.41
2019-06-01T16:52:18.316Z,49.54
2019-06-01T16:54:46.531Z,49.36
2019-06-01T16:57:14.736Z,49.35
2019-06-01T16:59:42.992Z,49.31
2019-06-01T17:02:11.264Z,49.44
2019-06-01T17:04:39.485Z,49.58
2019-06-01T17:07:08.847Z,49.95
2019-06-01T17:09:37.196Z,50.23
2019-06-01T17:12:05.419Z,50.60
2019-06-01T17:14:33.648Z,50.86
2019-06-01T17:17:03.125Z,50.95
2019-06-01T17:19:31.459Z,51.10
2019-06-01T17:21:59.690Z,51.29
2019-06-01T17:24:27.949Z,51.38
2019-06-01T17:26:56.170Z,51.57
2019-06-01T17:29:24.371Z,51.85
2019-06-01T17:31:54.746Z,52.07
2019-06-01T17:34:22.735Z,52.21
2019-06-01T17:36:50.877Z,52.44
2019-06-01T17:39:19.095Z,52.73
2019-06-01T17:41:47.310Z,52.99
2019-06-01T17:44:15.595Z,52.81
2019-06-01T17:46:53.582Z,52.73
2019-06-01T17:49:13.832Z,52.76
2019-06-01T17:51:42.031Z,52.91
2019-06-01T17:54:10.271Z,53.28
2019-06-01T17:56:38.470Z,53.37
2019-06-01T17:59:07.533Z,53.52
2019-06-01T18:01:35.766Z,53.62
2019-06-01T18:04:03.962Z,53.53
2019-06-01T18:06:32.255Z,53.40
2019-06-01T18:09:01.864Z,53.22
2019-06-01T18:11:30.176Z,53.10
2019-06-01T18:13:58.374Z,53.28
2019-06-01T18:16:26.573Z,53.11
2019-06-01T18:18:54.796Z,52.93
2019-06-01T18:21:23.010Z,52.51
2019-06-01T18:23:51.217Z,51.96
2019-06-01T18:26:19.481Z,51.84
2019-06-01T18:28:51.221Z,51.84
2019-06-01T18:31:19.450Z,52.15
2019-06-01T18:33:47.653Z,52.55
2019-06-01T18:36:15.855Z,52.72
2019-06-01T18:38:44.062Z,52.93
2019-06-01T18:41:18.278Z,53.09
2019-06-01T18:43:42.201Z,53.27
2019-06-01T18:46:10.401Z,53.29
2019-06-01T18:48:38.615Z,53.37
2019-06-01T18:51:08.149Z,53.50
2019-06-01T18:53:36.392Z,53.63
2019-06-01T18:56:05.908Z,53.78
2019-06-01T18:58:34.281Z,53.95
2019-06-01T19:01:02.635Z,54.09
2019-06-01T19:03:30.850Z,54.30
2019-06-01T19:05:59.058Z,54.51
2019-06-01T19:08:27.303Z,54.76
2019-06-01T19:10:55.534Z,54.92
2019-06-01T19:13:23.745Z,55.14
2019-06-01T19:15:52.061Z,55.38
2019-06-01T19:18:20.309Z,55.60
2019-06-01T19:20:48.510Z,55.83
2019-06-01T19:23:21.627Z,56.13
2019-06-01T19:25:46.799Z,56.41
2019-06-01T19:28:15.341Z,56.83
2019-06-01T19:30:43.784Z,57.15
2019-06-01T19:33:15.525Z,57.40
2019-06-01T19:35:41.949Z,57.53
2019-06-01T19:38:11.475Z,57.68
2019-06-01T19:40:40.478Z,57.83
2019-06-01T19:43:09.481Z,58.00
2019-06-01T19:45:37.734Z,58.00
2019-06-01T19:48:06.314Z,58.01
2019-06-01T19:50:34.601Z,57.95
2019-06-01T19:53:02.901Z,58.00
2019-06-01T19:55:31.069Z,58.11
2019-06-01T19:57:59.301Z,58.35
2019-06-01T20:00:27.493Z,58.52
2019-06-01T20:02:55.710Z,58.78
2019-06-01T20:05:23.901Z,58.87
2019-06-01T20:07:52.142Z,59.07
2019-06-01T20:10:20.409Z,59.26
2019-06-01T20:12:48.636Z,59.39
2019-06-01T20:15:17.477Z,59.53
2019-06-01T20:17:45.773Z,59.78
2019-06-01T20:20:14.774Z,60.03
2019-06-01T20:22:42.950Z,60.12
2019-06-01T20:25:11.513Z,60.49
2019-06-01T20:27:39.625Z,60.45
2019-06-01T20:30:07.930Z,60.45
2019-06-01T20:32:36.128Z,60.45
2019-06-01T20:35:05.230Z,60.09
2019-06-01T20:37:33.432Z,59.89
2019-06-01T20:40:01.665Z,59.51
2019-06-01T20:42:32.771Z,59.20
2019-06-01T20:44:59.808Z,58.41
2019-06-01T20:47:28.021Z,57.90
2019-06-01T20:49:56.224Z,57.76
2019-06-01T20:52:24.442Z,57.75
2019-06-01T20:54:52.661Z,57.79
2019-06-01T20:57:21.506Z,57.59
2019-06-01T20:59:49.736Z,57.42
2019-06-01T21:02:18.057Z,57.44
2019-06-01T21:04:46.317Z,57.38
2019-06-01T21:07:15.649Z,57.46
2019-06-01T21:09:44.022Z,57.45
2019-06-01T21:12:12.237Z,57.43
2019-06-01T21:14:43.279Z,57.49
2019-06-01T21:17:11.484Z,57.33
2019-06-01T21:19:39.842Z,57.31
2019-06-01T21:22:08.035Z,57.32
2019-06-01T21:24:36.243Z,57.33
2019-06-01T21:27:04.450Z,57.27
2019-06-01T21:29:32.664Z,57.23
2019-06-01T21:32:00.965Z,57.18
2019-06-01T21:34:29.235Z,57.08
2019-06-01T21:36:57.407Z,56.99
2019-06-01T21:39:25.625Z,56.88
2019-06-01T21:41:53.845Z,56.64
2019-06-01T21:44:22.041Z,56.53
2019-06-01T21:46:50.437Z,56.47
2019-06-01T21:49:19.783Z,56.51
2019-06-01T21:51:48.658Z,56.63
2019-06-01T21:54:18.004Z,56.85
2019-06-01T21:56:46.343Z,56.97
2019-06-01T21:59:14.554Z,57.01
2019-06-01T22:01:42.781Z,56.94
2019-06-01T22:04:11.046Z,56.83
2019-06-01T22:06:39.284Z,56.88
2019-06-01T22:09:07.485Z,56.74
2019-06-01T22:11:35.704Z,56.72
2019-06-01T22:14:04.078Z,56.64
2019-06-01T22:16:32.327Z,56.62
2019-06-01T22:19:00.683Z,56.63
2019-06-01T22:21:28.886Z,56.64
2019-06-01T22:23:57.084Z,56.48
2019-06-01T22:26:26.369Z,56.55
2019-06-01T22:28:54.583Z,56.57
2019-06-01T22:31:22.785Z,56.70
2019-06-01T22:33:51.001Z,56.87
2019-06-01T22:36:20.465Z,56.96
2019-06-01T22:38:48.729Z,56.81
2019-06-01T22:41:16.963Z,56.72
2019-06-01T22:43:46.719Z,56.69
2019-06-01T22:46:15.092Z,56.63
2019-06-01T22:48:43.326Z,56.53
2019-06-01T22:51:11.534Z,56.60
2019-06-01T22:53:39.757Z,56.46
2019-06-01T22:56:07.956Z,56.55
2019-06-01T22:58:36.161Z,56.74
2019-06-01T23:01:04.374Z,56.91
2019-06-01T23:03:32.611Z,57.13
2019-06-01T23:06:00.833Z,57.34
2019-06-01T23:08:29.475Z,57.51
2019-06-01T23:10:57.746Z,57.71
2019-06-01T23:13:26.223Z,57.81
2019-06-01T23:15:54.571Z,57.92
2019-06-01T23:18:23.597Z,57.99
2019-06-01T23:20:51.855Z,57.98
2019-06-01T23:23:20.116Z,57.78
2019-06-01T23:25:48.316Z,57.76
2019-06-01T23:28:16.516Z,57.34
2019-06-01T23:30:44.722Z,57.14
2019-06-01T23:33:12.932Z,56.49
2019-06-01T23:35:41.167Z,56.02
2019-06-01T23:38:09.373Z,55.91
2019-06-01T23:40:37.621Z,55.94
2019-06-01T23:43:05.814Z,55.71
2019-06-01T23:45:34.081Z,55.58
2019-06-01T23:48:02.310Z,55.35
2019-06-01T23:50:30.510Z,55.19
2019-06-01T23:53:12.795Z,54.88
2019-06-01T23:55:29.848Z,54.61
2019-06-01T23:57:58.130Z,54.54
